The Canyons, Utah
Current Conditions -  °F | °C
As of 10:15 AM on Thursday 18 Dec 2014 (Local Time) from K36U Reporting Station
Overcast Overcast  
Wind Chill: 32°   Ceiling: 2900
Heat Index: 32°   Visibility: 10mi
Dew Point: 27°   Wind: 0mph
Humidity: 80%   Direction: NA
Pressure: 30.15"   Gusts: NA
Location:  40.71°N, 111.53°W
Report Text: K36U 181715Z AUTO 00000KT 10SM OVC029 00/M03 A3015 RMK AO2
Loading
Personal Weather Stations






























Interactive Weather Map New forecast layout! Learn more

10-Day Weather Forecast

Advertisements
Track Severe Weather on mobile